sensor_id;sensor_type;location;lat;lon;timestamp;P1;durP1;ratioP1;P2;durP2;ratioP2
37485;SDS011;23341;50.296;18.960;2023-04-01T00:00:16;11.30;;;5.78;;
37485;SDS011;23341;50.296;18.960;2023-04-01T00:05:44;10.70;;;6.22;;
37485;SDS011;23341;50.296;18.960;2023-04-01T00:10:48;7.35;;;4.78;;
37485;SDS011;23341;50.296;18.960;2023-04-01T00:15:53;10.15;;;5.80;;
37485;SDS011;23341;50.296;18.960;2023-04-01T00:21:01;11.82;;;6.40;;
37485;SDS011;23341;50.296;18.960;2023-04-01T00:26:05;14.57;;;6.32;;
37485;SDS011;23341;50.296;18.960;2023-04-01T00:31:10;13.10;;;6.05;;
37485;SDS011;23341;50.296;18.960;2023-04-01T00:36:18;10.35;;;6.07;;
37485;SDS011;23341;50.296;18.960;2023-04-01T00:41:25;10.45;;;5.75;;
37485;SDS011;23341;50.296;18.960;2023-04-01T00:46:30;9.32;;;6.25;;
37485;SDS011;23341;50.296;18.960;2023-04-01T00:51:36;12.35;;;6.85;;
37485;SDS011;23341;50.296;18.960;2023-04-01T00:56:45;15.25;;;7.93;;
37485;SDS011;23341;50.296;18.960;2023-04-01T01:01:52;15.38;;;7.38;;
37485;SDS011;23341;50.296;18.960;2023-04-01T01:07:02;15.70;;;8.73;;
37485;SDS011;23341;50.296;18.960;2023-04-01T01:12:16;16.63;;;7.88;;
37485;SDS011;23341;50.296;18.960;2023-04-01T01:17:26;11.88;;;8.02;;
37485;SDS011;23341;50.296;18.960;2023-04-01T01:28:28;10.75;;;7.80;;
37485;SDS011;23341;50.296;18.960;2023-04-01T01:33:55;13.40;;;8.07;;
37485;SDS011;23341;50.296;18.960;2023-04-01T01:39:08;12.05;;;8.05;;
37485;SDS011;23341;50.296;18.960;2023-04-01T01:44:13;9.77;;;7.97;;
37485;SDS011;23341;50.296;18.960;2023-04-01T01:49:19;10.32;;;8.30;;
37485;SDS011;23341;50.296;18.960;2023-04-01T01:54:26;10.30;;;7.53;;
37485;SDS011;23341;50.296;18.960;2023-04-01T01:59:30;10.63;;;8.35;;
37485;SDS011;23341;50.296;18.960;2023-04-01T02:04:39;12.48;;;8.93;;
37485;SDS011;23341;50.296;18.960;2023-04-01T02:09:48;14.77;;;9.68;;
37485;SDS011;23341;50.296;18.960;2023-04-01T02:14:55;15.35;;;10.07;;
37485;SDS011;23341;50.296;18.960;2023-04-01T02:20:05;14.73;;;8.75;;
37485;SDS011;23341;50.296;18.960;2023-04-01T02:25:14;12.32;;;9.20;;
37485;SDS011;23341;50.296;18.960;2023-04-01T02:30:22;10.50;;;7.95;;
37485;SDS011;23341;50.296;18.960;2023-04-01T02:35:28;14.00;;;7.47;;
37485;SDS011;23341;50.296;18.960;2023-04-01T02:40:44;15.10;;;8.23;;
37485;SDS011;23341;50.296;18.960;2023-04-01T02:45:51;15.18;;;7.68;;
37485;SDS011;23341;50.296;18.960;2023-04-01T02:50:56;12.15;;;6.95;;
37485;SDS011;23341;50.296;18.960;2023-04-01T02:56:02;11.55;;;7.57;;
37485;SDS011;23341;50.296;18.960;2023-04-01T03:01:06;13.48;;;7.90;;
37485;SDS011;23341;50.296;18.960;2023-04-01T03:06:11;10.43;;;7.10;;
37485;SDS011;23341;50.296;18.960;2023-04-01T03:11:19;10.23;;;6.88;;
37485;SDS011;23341;50.296;18.960;2023-04-01T03:16:23;9.95;;;6.22;;
37485;SDS011;23341;50.296;18.960;2023-04-01T03:21:27;12.45;;;6.75;;
37485;SDS011;23341;50.296;18.960;2023-04-01T03:26:33;16.17;;;8.73;;
37485;SDS011;23341;50.296;18.960;2023-04-01T03:31:38;9.75;;;5.88;;
37485;SDS011;23341;50.296;18.960;2023-04-01T03:36:43;9.57;;;6.82;;
37485;SDS011;23341;50.296;18.960;2023-04-01T03:41:49;7.18;;;5.75;;
37485;SDS011;23341;50.296;18.960;2023-04-01T03:46:53;8.90;;;5.90;;
37485;SDS011;23341;50.296;18.960;2023-04-01T03:51:58;9.80;;;5.88;;
37485;SDS011;23341;50.296;18.960;2023-04-01T03:57:04;11.10;;;7.60;;
37485;SDS011;23341;50.296;18.960;2023-04-01T04:02:09;8.98;;;6.53;;
37485;SDS011;23341;50.296;18.960;2023-04-01T04:07:14;7.97;;;6.60;;
37485;SDS011;23341;50.296;18.960;2023-04-01T04:12:36;9.95;;;7.72;;
37485;SDS011;23341;50.296;18.960;2023-04-01T04:17:41;7.93;;;5.90;;
37485;SDS011;23341;50.296;18.960;2023-04-01T04:22:45;14.52;;;6.13;;
37485;SDS011;23341;50.296;18.960;2023-04-01T04:27:51;10.60;;;5.75;;
37485;SDS011;23341;50.296;18.960;2023-04-01T04:32:56;7.95;;;5.95;;
37485;SDS011;23341;50.296;18.960;2023-04-01T04:38:00;8.00;;;5.50;;
37485;SDS011;23341;50.296;18.960;2023-04-01T04:43:06;6.60;;;6.00;;
37485;SDS011;23341;50.296;18.960;2023-04-01T04:48:11;7.32;;;5.60;;
37485;SDS011;23341;50.296;18.960;2023-04-01T04:58:26;8.25;;;5.75;;
37485;SDS011;23341;50.296;18.960;2023-04-01T05:03:31;11.25;;;6.18;;
37485;SDS011;23341;50.296;18.960;2023-04-01T05:08:36;9.50;;;5.85;;
37485;SDS011;23341;50.296;18.960;2023-04-01T05:13:43;10.07;;;6.15;;
37485;SDS011;23341;50.296;18.960;2023-04-01T05:18:48;11.27;;;6.13;;
37485;SDS011;23341;50.296;18.960;2023-04-01T05:23:53;9.32;;;5.95;;
37485;SDS011;23341;50.296;18.960;2023-04-01T05:29:00;9.68;;;7.32;;
37485;SDS011;23341;50.296;18.960;2023-04-01T05:34:05;10.68;;;7.18;;
37485;SDS011;23341;50.296;18.960;2023-04-01T05:39:09;8.10;;;5.90;;
37485;SDS011;23341;50.296;18.960;2023-04-01T05:44:16;7.97;;;6.10;;
37485;SDS011;23341;50.296;18.960;2023-04-01T05:49:44;10.70;;;7.30;;
37485;SDS011;23341;50.296;18.960;2023-04-01T05:54:49;14.10;;;7.30;;
37485;SDS011;23341;50.296;18.960;2023-04-01T05:59:55;9.85;;;6.63;;
37485;SDS011;23341;50.296;18.960;2023-04-01T06:05:02;10.50;;;6.68;;
37485;SDS011;23341;50.296;18.960;2023-04-01T06:10:22;8.40;;;6.05;;
37485;SDS011;23341;50.296;18.960;2023-04-01T06:15:36;14.88;;;7.85;;
37485;SDS011;23341;50.296;18.960;2023-04-01T06:20:49;12.95;;;5.97;;
37485;SDS011;23341;50.296;18.960;2023-04-01T06:26:06;11.38;;;7.25;;
37485;SDS011;23341;50.296;18.960;2023-04-01T06:36:57;12.98;;;6.22;;
37485;SDS011;23341;50.296;18.960;2023-04-01T06:42:24;5.75;;;4.55;;
37485;SDS011;23341;50.296;18.960;2023-04-01T06:47:48;9.52;;;6.32;;
37485;SDS011;23341;50.296;18.960;2023-04-01T06:53:21;13.70;;;6.43;;
37485;SDS011;23341;50.296;18.960;2023-04-01T06:58:52;13.82;;;8.48;;
37485;SDS011;23341;50.296;18.960;2023-04-01T07:04:02;9.38;;;6.53;;
37485;SDS011;23341;50.296;18.960;2023-04-01T07:09:10;12.80;;;8.15;;
37485;SDS011;23341;50.296;18.960;2023-04-01T07:14:37;16.88;;;9.57;;
37485;SDS011;23341;50.296;18.960;2023-04-01T07:19:47;13.98;;;8.20;;
37485;SDS011;23341;50.296;18.960;2023-04-01T07:24:56;20.35;;;8.23;;
37485;SDS011;23341;50.296;18.960;2023-04-01T07:30:07;13.52;;;8.32;;
37485;SDS011;23341;50.296;18.960;2023-04-01T07:35:22;17.90;;;10.18;;
37485;SDS011;23341;50.296;18.960;2023-04-01T07:40:35;12.18;;;8.05;;
37485;SDS011;23341;50.296;18.960;2023-04-01T07:45:51;13.77;;;7.88;;
37485;SDS011;23341;50.296;18.960;2023-04-01T07:51:09;21.23;;;12.05;;
37485;SDS011;23341;50.296;18.960;2023-04-01T07:56:19;14.00;;;8.05;;
37485;SDS011;23341;50.296;18.960;2023-04-01T08:01:32;13.27;;;8.55;;
37485;SDS011;23341;50.296;18.960;2023-04-01T08:06:47;11.52;;;6.90;;
37485;SDS011;23341;50.296;18.960;2023-04-01T08:12:01;15.45;;;6.82;;
37485;SDS011;23341;50.296;18.960;2023-04-01T08:17:35;15.07;;;8.65;;
37485;SDS011;23341;50.296;18.960;2023-04-01T08:22:51;9.57;;;7.18;;
37485;SDS011;23341;50.296;18.960;2023-04-01T08:28:09;13.38;;;7.75;;
37485;SDS011;23341;50.296;18.960;2023-04-01T08:33:19;8.57;;;6.15;;
37485;SDS011;23341;50.296;18.960;2023-04-01T08:38:38;5.60;;;4.95;;
37485;SDS011;23341;50.296;18.960;2023-04-01T08:44:04;12.13;;;8.93;;
37485;SDS011;23341;50.296;18.960;2023-04-01T08:49:28;8.93;;;5.47;;
37485;SDS011;23341;50.296;18.960;2023-04-01T09:00:47;7.80;;;6.65;;
37485;SDS011;23341;50.296;18.960;2023-04-01T09:06:20;7.72;;;5.95;;
37485;SDS011;23341;50.296;18.960;2023-04-01T09:11:35;9.63;;;6.35;;
37485;SDS011;23341;50.296;18.960;2023-04-01T09:22:44;9.90;;;6.88;;
37485;SDS011;23341;50.296;18.960;2023-04-01T09:28:02;11.50;;;9.55;;
37485;SDS011;23341;50.296;18.960;2023-04-01T09:33:25;10.73;;;9.63;;
37485;SDS011;23341;50.296;18.960;2023-04-01T09:38:49;9.60;;;8.60;;
37485;SDS011;23341;50.296;18.960;2023-04-01T09:44:02;6.60;;;6.00;;
37485;SDS011;23341;50.296;18.960;2023-04-01T09:55:24;10.05;;;7.82;;
37485;SDS011;23341;50.296;18.960;2023-04-01T10:00:55;13.98;;;9.02;;
37485;SDS011;23341;50.296;18.960;2023-04-01T10:06:26;14.45;;;13.00;;
37485;SDS011;23341;50.296;18.960;2023-04-01T10:57:54;4.03;;;3.10;;
37485;SDS011;23341;50.296;18.960;2023-04-01T11:27:25;6.97;;;4.53;;
37485;SDS011;23341;50.296;18.960;2023-04-01T11:32:48;6.45;;;4.72;;
37485;SDS011;23341;50.296;18.960;2023-04-01T11:37:58;2.42;;;2.22;;
37485;SDS011;23341;50.296;18.960;2023-04-01T11:43:23;7.80;;;6.65;;
37485;SDS011;23341;50.296;18.960;2023-04-01T11:48:58;6.57;;;4.47;;
37485;SDS011;23341;50.296;18.960;2023-04-01T11:54:21;7.72;;;6.03;;
37485;SDS011;23341;50.296;18.960;2023-04-01T12:05:28;16.27;;;9.50;;
37485;SDS011;23341;50.296;18.960;2023-04-01T12:10:47;10.43;;;6.35;;
37485;SDS011;23341;50.296;18.960;2023-04-01T12:16:02;5.63;;;4.80;;
37485;SDS011;23341;50.296;18.960;2023-04-01T12:21:20;6.88;;;5.10;;
37485;SDS011;23341;50.296;18.960;2023-04-01T12:26:35;16.83;;;6.82;;
37485;SDS011;23341;50.296;18.960;2023-04-01T12:31:56;9.95;;;7.32;;
37485;SDS011;23341;50.296;18.960;2023-04-01T12:37:10;16.98;;;10.90;;
37485;SDS011;23341;50.296;18.960;2023-04-01T12:42:23;16.45;;;7.10;;
37485;SDS011;23341;50.296;18.960;2023-04-01T12:47:51;5.22;;;4.15;;
37485;SDS011;23341;50.296;18.960;2023-04-01T12:53:21;6.25;;;4.65;;
37485;SDS011;23341;50.296;18.960;2023-04-01T12:59:05;9.10;;;4.57;;
37485;SDS011;23341;50.296;18.960;2023-04-01T13:10:20;7.97;;;5.22;;
37485;SDS011;23341;50.296;18.960;2023-04-01T13:15:40;15.98;;;8.45;;
37485;SDS011;23341;50.296;18.960;2023-04-01T13:20:53;11.95;;;6.95;;
37485;SDS011;23341;50.296;18.960;2023-04-01T13:26:07;22.63;;;12.27;;
37485;SDS011;23341;50.296;18.960;2023-04-01T13:31:25;9.02;;;6.25;;
37485;SDS011;23341;50.296;18.960;2023-04-01T13:36:38;8.60;;;6.60;;
37485;SDS011;23341;50.296;18.960;2023-04-01T13:42:05;17.90;;;11.43;;
37485;SDS011;23341;50.296;18.960;2023-04-01T13:47:40;7.45;;;6.68;;
37485;SDS011;23341;50.296;18.960;2023-04-01T13:53:09;11.38;;;8.05;;
37485;SDS011;23341;50.296;18.960;2023-04-01T13:58:46;12.55;;;8.15;;
37485;SDS011;23341;50.296;18.960;2023-04-01T14:09:30;27.25;;;14.95;;
37485;SDS011;23341;50.296;18.960;2023-04-01T14:14:55;16.10;;;12.13;;
37485;SDS011;23341;50.296;18.960;2023-04-01T14:20:33;17.08;;;12.40;;
37485;SDS011;23341;50.296;18.960;2023-04-01T14:25:53;23.67;;;13.57;;
37485;SDS011;23341;50.296;18.960;2023-04-01T14:31:15;83.55;;;46.70;;
37485;SDS011;23341;50.296;18.960;2023-04-01T14:36:45;35.78;;;24.55;;
37485;SDS011;23341;50.296;18.960;2023-04-01T14:41:59;120.57;;;68.53;;
37485;SDS011;23341;50.296;18.960;2023-04-01T14:52:59;55.67;;;30.80;;
37485;SDS011;23341;50.296;18.960;2023-04-01T14:58:16;73.18;;;24.75;;
37485;SDS011;23341;50.296;18.960;2023-04-01T15:03:25;36.90;;;16.75;;
37485;SDS011;23341;50.296;18.960;2023-04-01T15:08:33;13.73;;;9.98;;
37485;SDS011;23341;50.296;18.960;2023-04-01T15:14:04;19.45;;;11.38;;
37485;SDS011;23341;50.296;18.960;2023-04-01T15:19:27;11.88;;;8.45;;
37485;SDS011;23341;50.296;18.960;2023-04-01T15:24:42;28.15;;;13.52;;
37485;SDS011;23341;50.296;18.960;2023-04-01T15:29:56;20.48;;;11.02;;
37485;SDS011;23341;50.296;18.960;2023-04-01T15:35:27;15.60;;;9.25;;
37485;SDS011;23341;50.296;18.960;2023-04-01T15:40:41;52.97;;;21.23;;
37485;SDS011;23341;50.296;18.960;2023-04-01T15:45:50;41.10;;;20.63;;
37485;SDS011;23341;50.296;18.960;2023-04-01T15:51:05;52.92;;;24.30;;
37485;SDS011;23341;50.296;18.960;2023-04-01T16:01:50;35.25;;;17.83;;
37485;SDS011;23341;50.296;18.960;2023-04-01T16:07:07;21.27;;;13.20;;
37485;SDS011;23341;50.296;18.960;2023-04-01T16:12:20;19.83;;;12.50;;
37485;SDS011;23341;50.296;18.960;2023-04-01T16:17:44;23.02;;;14.02;;
37485;SDS011;23341;50.296;18.960;2023-04-01T16:23:04;27.40;;;14.05;;
37485;SDS011;23341;50.296;18.960;2023-04-01T16:28:19;21.15;;;12.15;;
37485;SDS011;23341;50.296;18.960;2023-04-01T16:33:32;25.48;;;13.93;;
37485;SDS011;23341;50.296;18.960;2023-04-01T16:38:45;38.85;;;19.08;;
37485;SDS011;23341;50.296;18.960;2023-04-01T16:43:58;33.67;;;17.98;;
37485;SDS011;23341;50.296;18.960;2023-04-01T16:54:44;36.70;;;21.00;;
37485;SDS011;23341;50.296;18.960;2023-04-01T16:59:55;63.90;;;30.38;;
37485;SDS011;23341;50.296;18.960;2023-04-01T17:05:08;97.82;;;43.72;;
37485;SDS011;23341;50.296;18.960;2023-04-01T17:10:25;70.15;;;36.10;;
37485;SDS011;23341;50.296;18.960;2023-04-01T17:15:41;51.88;;;30.52;;
37485;SDS011;23341;50.296;18.960;2023-04-01T17:20:50;73.32;;;36.22;;
37485;SDS011;23341;50.296;18.960;2023-04-01T17:26:08;46.80;;;25.73;;
37485;SDS011;23341;50.296;18.960;2023-04-01T17:31:27;47.78;;;28.67;;
37485;SDS011;23341;50.296;18.960;2023-04-01T17:36:49;114.00;;;50.42;;
37485;SDS011;23341;50.296;18.960;2023-04-01T17:42:06;98.05;;;46.75;;
37485;SDS011;23341;50.296;18.960;2023-04-01T17:47:23;88.82;;;40.58;;
37485;SDS011;23341;50.296;18.960;2023-04-01T17:52:37;84.20;;;45.33;;
37485;SDS011;23341;50.296;18.960;2023-04-01T17:57:49;64.50;;;35.60;;
37485;SDS011;23341;50.296;18.960;2023-04-01T18:03:01;141.38;;;73.50;;
37485;SDS011;23341;50.296;18.960;2023-04-01T18:08:21;100.35;;;59.17;;
37485;SDS011;23341;50.296;18.960;2023-04-01T18:13:51;66.35;;;40.88;;
37485;SDS011;23341;50.296;18.960;2023-04-01T18:19:09;58.63;;;37.65;;
37485;SDS011;23341;50.296;18.960;2023-04-01T18:24:22;42.92;;;29.55;;
37485;SDS011;23341;50.296;18.960;2023-04-01T18:29:35;41.88;;;26.52;;
37485;SDS011;23341;50.296;18.960;2023-04-01T18:34:51;51.08;;;32.17;;
37485;SDS011;23341;50.296;18.960;2023-04-01T18:40:04;54.60;;;34.83;;
37485;SDS011;23341;50.296;18.960;2023-04-01T18:45:22;57.08;;;37.03;;
37485;SDS011;23341;50.296;18.960;2023-04-01T18:50:33;66.03;;;40.13;;
37485;SDS011;23341;50.296;18.960;2023-04-01T18:55:43;108.18;;;53.90;;
37485;SDS011;23341;50.296;18.960;2023-04-01T19:00:59;116.88;;;52.05;;
37485;SDS011;23341;50.296;18.960;2023-04-01T19:06:13;59.60;;;30.42;;
37485;SDS011;23341;50.296;18.960;2023-04-01T19:11:27;124.60;;;54.75;;
37485;SDS011;23341;50.296;18.960;2023-04-01T19:16:44;112.70;;;52.85;;
37485;SDS011;23341;50.296;18.960;2023-04-01T19:22:00;48.75;;;28.17;;
37485;SDS011;23341;50.296;18.960;2023-04-01T19:27:19;38.45;;;21.70;;
37485;SDS011;23341;50.296;18.960;2023-04-01T19:32:37;31.13;;;20.63;;
37485;SDS011;23341;50.296;18.960;2023-04-01T19:37:51;92.20;;;41.97;;
37485;SDS011;23341;50.296;18.960;2023-04-01T19:43:02;107.43;;;45.38;;
37485;SDS011;23341;50.296;18.960;2023-04-01T19:48:18;301.77;;;112.90;;
37485;SDS011;23341;50.296;18.960;2023-04-01T19:53:41;126.55;;;54.80;;
37485;SDS011;23341;50.296;18.960;2023-04-01T19:58:54;134.75;;;73.07;;
37485;SDS011;23341;50.296;18.960;2023-04-01T20:09:22;48.00;;;33.33;;
37485;SDS011;23341;50.296;18.960;2023-04-01T20:14:38;56.40;;;33.78;;
37485;SDS011;23341;50.296;18.960;2023-04-01T20:19:51;69.93;;;40.42;;
37485;SDS011;23341;50.296;18.960;2023-04-01T20:25:05;65.38;;;38.17;;
37485;SDS011;23341;50.296;18.960;2023-04-01T20:35:59;69.13;;;38.80;;
37485;SDS011;23341;50.296;18.960;2023-04-01T20:41:11;58.67;;;34.17;;
37485;SDS011;23341;50.296;18.960;2023-04-01T20:46:27;55.60;;;35.00;;
37485;SDS011;23341;50.296;18.960;2023-04-01T20:51:42;67.53;;;39.63;;
37485;SDS011;23341;50.296;18.960;2023-04-01T20:56:54;80.70;;;47.67;;
37485;SDS011;23341;50.296;18.960;2023-04-01T21:02:14;67.13;;;40.63;;
37485;SDS011;23341;50.296;18.960;2023-04-01T21:07:30;57.25;;;34.28;;
37485;SDS011;23341;50.296;18.960;2023-04-01T21:12:46;50.05;;;29.50;;
37485;SDS011;23341;50.296;18.960;2023-04-01T21:18:00;45.28;;;27.05;;
37485;SDS011;23341;50.296;18.960;2023-04-01T21:23:20;48.20;;;31.27;;
37485;SDS011;23341;50.296;18.960;2023-04-01T21:28:38;40.60;;;25.48;;
37485;SDS011;23341;50.296;18.960;2023-04-01T21:34:02;46.00;;;26.00;;
37485;SDS011;23341;50.296;18.960;2023-04-01T21:39:29;194.15;;;65.40;;
37485;SDS011;23341;50.296;18.960;2023-04-01T21:45:02;112.13;;;42.05;;
37485;SDS011;23341;50.296;18.960;2023-04-01T22:07:15;60.08;;;29.55;;
37485;SDS011;23341;50.296;18.960;2023-04-01T22:12:23;37.22;;;23.13;;
37485;SDS011;23341;50.296;18.960;2023-04-01T22:17:35;39.10;;;23.60;;
37485;SDS011;23341;50.296;18.960;2023-04-01T22:22:52;55.28;;;29.10;;
37485;SDS011;23341;50.296;18.960;2023-04-01T22:28:06;225.27;;;78.65;;
37485;SDS011;23341;50.296;18.960;2023-04-01T22:38:30;54.50;;;28.98;;
37485;SDS011;23341;50.296;18.960;2023-04-01T22:43:45;67.93;;;32.55;;
37485;SDS011;23341;50.296;18.960;2023-04-01T22:48:51;138.70;;;52.95;;
37485;SDS011;23341;50.296;18.960;2023-04-01T22:54:07;43.95;;;25.98;;
37485;SDS011;23341;50.296;18.960;2023-04-01T22:59:22;138.07;;;53.17;;
37485;SDS011;23341;50.296;18.960;2023-04-01T23:04:33;48.17;;;27.50;;
37485;SDS011;23341;50.296;18.960;2023-04-01T23:14:49;39.75;;;24.60;;
37485;SDS011;23341;50.296;18.960;2023-04-01T23:19:58;38.42;;;25.08;;
37485;SDS011;23341;50.296;18.960;2023-04-01T23:25:15;47.92;;;27.17;;
37485;SDS011;23341;50.296;18.960;2023-04-01T23:30:47;78.68;;;36.17;;
37485;SDS011;23341;50.296;18.960;2023-04-01T23:35:54;208.15;;;100.18;;
37485;SDS011;23341;50.296;18.960;2023-04-01T23:41:15;167.45;;;62.83;;
37485;SDS011;23341;50.296;18.960;2023-04-01T23:46:22;74.00;;;38.97;;
37485;SDS011;23341;50.296;18.960;2023-04-01T23:51:29;56.67;;;35.30;;
37485;SDS011;23341;50.296;18.960;2023-04-01T23:56:43;43.10;;;26.23;;
